createdAt,value
2022-09-15T00:00:01.478Z,0
2022-09-15T00:05:01.670Z,0
2022-09-15T00:10:01.557Z,0
2022-09-15T00:15:01.481Z,0
2022-09-15T00:20:01.760Z,0
2022-09-15T00:25:01.490Z,0
2022-09-15T00:30:01.493Z,0
2022-09-15T00:35:01.501Z,0
2022-09-15T00:40:01.733Z,0
2022-09-15T00:45:01.601Z,0
2022-09-15T00:50:01.498Z,0
2022-09-15T00:55:01.611Z,0
2022-09-15T01:00:01.518Z,0
2022-09-15T01:05:01.595Z,0
2022-09-15T01:10:01.593Z,0
2022-09-15T01:15:01.755Z,0
2022-09-15T01:20:01.554Z,0
2022-09-15T01:25:01.568Z,0
2022-09-15T01:30:01.754Z,0
2022-09-15T01:35:01.557Z,0
2022-09-15T01:40:01.645Z,0
2022-09-15T01:45:01.557Z,0
2022-09-15T01:50:01.725Z,0
2022-09-15T01:55:01.590Z,0
2022-09-15T02:00:01.575Z,0
2022-09-15T02:05:01.798Z,0
2022-09-15T02:10:01.594Z,0
2022-09-15T02:15:01.622Z,0
2022-09-15T02:20:01.720Z,0
2022-09-15T02:25:01.786Z,0
2022-09-15T02:30:01.734Z,0
2022-09-15T02:35:01.594Z,0
2022-09-15T02:40:01.812Z,0
2022-09-15T02:45:01.588Z,0
2022-09-15T02:50:01.764Z,0
2022-09-15T02:55:01.608Z,0
2022-09-15T03:00:01.800Z,0
2022-09-15T03:05:01.616Z,0
2022-09-15T03:10:01.619Z,0
2022-09-15T03:15:01.652Z,0
2022-09-15T03:20:01.856Z,0
2022-09-15T03:25:01.720Z,0
2022-09-15T03:30:01.657Z,0
2022-09-15T03:35:02.120Z,0
2022-09-15T03:40:01.728Z,0
2022-09-15T03:45:01.815Z,0
2022-09-15T03:50:01.744Z,0
2022-09-15T03:55:01.966Z,0
2022-09-15T04:00:01.682Z,0
2022-09-15T04:05:01.831Z,0
2022-09-15T04:10:01.774Z,0
2022-09-15T04:15:01.991Z,0
2022-09-15T04:20:01.728Z,0
2022-09-15T04:25:01.698Z,0
2022-09-15T04:30:01.816Z,0
2022-09-15T04:35:01.787Z,0
2022-09-15T04:40:01.711Z,0
2022-09-15T04:45:01.715Z,0
2022-09-15T04:50:01.885Z,0
2022-09-15T04:55:01.740Z,0
2022-09-15T05:00:01.732Z,0.366010582010582
2022-09-15T05:05:01.750Z,0.3597989417989418
2022-09-15T05:10:02.001Z,0.476931216931217
2022-09-15T05:15:01.894Z,0.5162010582010582
2022-09-15T05:20:01.760Z,1.2713227513227514
2022-09-15T05:25:02.089Z,2.5662328042328046
2022-09-15T05:30:23.818Z,2.756476190476191
2022-09-15T05:35:01.823Z,1.497978835978836
2022-09-15T05:40:04.150Z,2.614804232804233
2022-09-15T05:45:01.967Z,3.536349206349206
2022-09-15T05:50:01.778Z,2.5072169312169312
2022-09-15T05:55:01.860Z,1.927957671957672
2022-09-15T06:00:01.985Z,3.6122433862433865
2022-09-15T06:05:01.822Z,4.636507936507937
2022-09-15T06:10:01.821Z,6.335089947089948
2022-09-15T06:15:01.776Z,7.778052910052911
2022-09-15T06:20:01.956Z,8.939375661375662
2022-09-15T06:25:01.792Z,10.712476190476192
2022-09-15T06:30:01.812Z,13.286296296296296
2022-09-15T06:35:01.872Z,14.271068783068783
2022-09-15T06:40:01.924Z,17.16843386243386
2022-09-15T06:45:01.875Z,23.463544973544973
2022-09-15T06:50:01.892Z,9.368010582010584
2022-09-15T06:55:01.937Z,9.861555555555555
2022-09-15T07:00:01.823Z,17.518825396825395
2022-09-15T07:05:01.837Z,29.223153439153442
2022-09-15T07:10:01.888Z,22.074232804232803
2022-09-15T07:15:02.501Z,13.562296296296294
2022-09-15T07:20:01.846Z,20.288042328042327
2022-09-15T07:25:01.848Z,24.36342857142857
2022-09-15T07:30:01.901Z,26.322730158730156
2022-09-15T07:35:02.053Z,18.382761904761903
2022-09-15T07:40:01.875Z,28.162370370370372
2022-09-15T07:45:01.883Z,24.5369417989418
2022-09-15T07:50:01.911Z,36.05966137566137
2022-09-15T07:55:02.010Z,12.828730158730158
2022-09-15T08:00:01.904Z,9.129291005291005
2022-09-15T08:05:01.892Z,7.9704656084656085
2022-09-15T08:10:02.087Z,11.410031746031747
2022-09-15T08:15:01.927Z,29.222867724867722
2022-09-15T08:20:01.944Z,49.20511111111111
2022-09-15T08:25:01.998Z,49.6941798941799
2022-09-15T08:30:02.062Z,32.86374603174603
2022-09-15T08:35:01.957Z,15.573513227513228
2022-09-15T08:40:02.015Z,35.593026455026454
2022-09-15T08:45:01.960Z,48.982412698412695
2022-09-15T08:50:02.119Z,40.69046560846561
2022-09-15T08:55:01.930Z,48.63081481481481
2022-09-15T09:00:01.948Z,45.41444444444445
2022-09-15T09:05:02.091Z,35.58913227513228
2022-09-15T09:10:01.987Z,57.41518518518518
2022-09-15T09:15:02.029Z,39.162962962962965
2022-09-15T09:20:01.949Z,39.285957671957675
2022-09-15T09:25:08.527Z,34.89058201058201
2022-09-15T09:30:02.100Z,46.26437037037037
2022-09-15T09:35:02.004Z,49.00478306878307
2022-09-15T09:40:02.067Z,53.714412698412694
2022-09-15T09:45:02.000Z,33.02226455026455
2022-09-15T09:50:01.961Z,43.6212380952381
2022-09-15T09:55:01.987Z,41.82203174603175
2022-09-15T10:00:02.149Z,41.90131216931217
2022-09-15T10:05:02.058Z,36.93215873015873
2022-09-15T10:10:02.036Z,30.255386243386244
2022-09-15T10:15:02.062Z,84.80554497354497
2022-09-15T10:20:02.245Z,26.867873015873016
2022-09-15T10:25:01.988Z,43.1529417989418
2022-09-15T10:30:02.013Z,21.938984126984128
2022-09-15T10:35:02.097Z,24.960095238095242
2022-09-15T10:40:02.155Z,22.637238095238096
2022-09-15T10:45:02.050Z,62.80307936507937
2022-09-15T10:50:02.012Z,56.041259259259256
2022-09-15T10:55:02.209Z,68.01476190476191
2022-09-15T11:00:02.025Z,50.38016931216932
2022-09-15T11:05:02.029Z,73.16493121693122
2022-09-15T11:10:02.108Z,75.96308994708994
2022-09-15T11:15:02.435Z,84.75025396825397
2022-09-15T11:20:02.049Z,81.46128042328043
2022-09-15T11:25:02.056Z,87.43757671957673
2022-09-15T11:30:02.266Z,84.9230582010582
2022-09-15T11:35:02.087Z,84.4322962962963
2022-09-15T11:40:02.195Z,84.1902328042328
2022-09-15T11:45:02.078Z,65.74653968253969
2022-09-15T11:50:02.317Z,49.72302645502646
2022-09-15T11:55:02.092Z,31.252846560846564
2022-09-15T12:00:02.095Z,43.27372486772487
2022-09-15T12:05:02.255Z,31.409947089947092
2022-09-15T12:15:02.201Z,95.6621798941799
2022-09-15T12:20:02.332Z,30.358846560846565
2022-09-15T12:25:02.101Z,79.3497671957672
2022-09-15T12:30:02.128Z,81.47831746031746
2022-09-15T12:35:02.129Z,65.0882962962963
2022-09-15T12:40:08.947Z,19.67784126984127
2022-09-15T12:45:02.164Z,16.16896296296296
2022-09-15T12:50:02.123Z,20.769280423280424
2022-09-15T12:55:02.304Z,66.659291005291
2022-09-15T13:00:02.255Z,41.69783068783069
2022-09-15T13:05:02.132Z,15.297682539682542
2022-09-15T13:10:06.789Z,8.32463492063492
2022-09-15T13:15:02.217Z,9.622455026455027
2022-09-15T13:20:02.216Z,7.078761904761905
2022-09-15T13:25:02.374Z,9.122455026455025
2022-09-15T13:30:02.401Z,21.468899470899473
2022-09-15T13:35:07.275Z,77.49289947089947
2022-09-15T13:40:10.971Z,37.12678306878307
2022-09-15T13:45:02.367Z,12.711925925925927
2022-09-15T13:50:02.220Z,12.06443386243386
2022-09-15T13:55:02.274Z,12.818444444444447
2022-09-15T14:00:02.212Z,12.017301587301588
2022-09-15T14:05:02.363Z,11.689936507936508
2022-09-15T14:10:10.424Z,22.13266666666667
2022-09-15T14:15:02.248Z,38.17076190476191
2022-09-15T14:20:02.357Z,14.431947089947089
2022-09-15T14:25:02.311Z,9.662835978835979
2022-09-15T14:30:02.221Z,31.554825396825397
2022-09-15T14:35:02.223Z,55.47557671957672
2022-09-15T14:40:07.606Z,22.162719576719574
2022-09-15T14:50:02.214Z,50.002613756613755
2022-09-15T14:55:02.396Z,45.11227513227513
2022-09-15T15:00:02.261Z,38.44839153439153
2022-09-15T15:05:02.378Z,28.216497354497356
2022-09-15T15:10:10.299Z,8.896433862433863
2022-09-15T15:15:02.477Z,5.357132275132275
2022-09-15T15:20:02.262Z,7.794
2022-09-15T15:25:02.254Z,15.759428571428572
2022-09-15T15:30:02.409Z,28.39321693121693
2022-09-15T15:35:02.257Z,30.819735449735454
2022-09-15T15:40:10.590Z,22.71578835978836
2022-09-15T15:45:02.354Z,29.113111111111113
2022-09-15T15:50:12.645Z,18.80511111111111
2022-09-15T15:55:02.305Z,23.11518518518519
2022-09-15T16:00:02.333Z,18.39858201058201
2022-09-15T16:05:02.426Z,15.815513227513229
2022-09-15T16:10:07.343Z,2.7495978835978834
2022-09-15T16:15:02.299Z,3.6608253968253965
2022-09-15T16:20:02.423Z,4.148444444444445
2022-09-15T16:25:02.327Z,2.8780105820105817
2022-09-15T16:30:02.316Z,1.9643597883597885
2022-09-15T16:35:02.413Z,2.8266243386243386
2022-09-15T16:40:11.230Z,2.388603174603175
2022-09-15T16:45:02.368Z,3.823291005291005
2022-09-15T16:50:02.323Z,2.4310052910052913
2022-09-15T16:55:02.497Z,0.8093862433862434
2022-09-15T17:00:02.354Z,0.7782857142857144
2022-09-15T17:05:02.386Z,0.46550264550264553
2022-09-15T17:10:08.574Z,0.24193650793650792
2022-09-15T17:15:02.385Z,0.2751005291005291
2022-09-15T17:20:02.340Z,0.08767195767195766
2022-09-15T17:25:02.380Z,0
2022-09-15T17:30:02.549Z,0
2022-09-15T17:35:02.349Z,0
2022-09-15T17:40:06.956Z,0
2022-09-15T17:45:02.540Z,0
2022-09-15T17:50:02.458Z,0
2022-09-15T17:55:02.371Z,0
2022-09-15T18:00:02.385Z,0
2022-09-15T18:05:02.585Z,0
2022-09-15T18:10:11.270Z,0
2022-09-15T18:15:02.511Z,0
2022-09-15T18:20:02.571Z,0
2022-09-15T18:25:02.510Z,0
2022-09-15T18:30:02.485Z,0
2022-09-15T18:35:02.421Z,0
2022-09-15T18:40:10.013Z,0
2022-09-15T18:45:02.441Z,0
2022-09-15T18:50:02.444Z,0
2022-09-15T18:55:02.600Z,0
2022-09-15T19:00:02.425Z,0
2022-09-15T19:05:02.441Z,0
2022-09-15T19:10:07.521Z,0
2022-09-15T19:15:02.615Z,0
2022-09-15T19:20:02.452Z,0
2022-09-15T19:25:02.464Z,0
2022-09-15T19:30:02.452Z,0
2022-09-15T19:35:02.666Z,0
2022-09-15T19:40:10.793Z,0
2022-09-15T19:45:02.535Z,0
2022-09-15T19:50:02.601Z,0
2022-09-15T19:55:02.886Z,0
2022-09-15T20:00:02.858Z,0
2022-09-15T20:05:34.825Z,0
2022-09-15T20:10:09.268Z,0
2022-09-15T20:15:02.519Z,0
2022-09-15T20:20:02.591Z,0
2022-09-15T20:25:02.532Z,0
2022-09-15T20:30:02.691Z,0
2022-09-15T20:35:02.518Z,0
2022-09-15T20:40:07.228Z,0
2022-09-15T20:45:02.519Z,0
2022-09-15T20:50:02.754Z,0
2022-09-15T20:55:02.555Z,0
2022-09-15T21:00:02.670Z,0
2022-09-15T21:05:02.757Z,0
2022-09-15T21:10:10.765Z,0
2022-09-15T21:15:02.594Z,0
2022-09-15T21:20:02.529Z,0
2022-09-15T21:25:02.760Z,0
2022-09-15T21:30:02.696Z,0
2022-09-15T21:35:02.562Z,0
2022-09-15T21:40:08.019Z,0
2022-09-15T21:45:02.781Z,0
2022-09-15T21:50:01.073Z,0
2022-09-15T21:55:01.338Z,0
2022-09-15T22:00:01.130Z,0
2022-09-15T22:05:01.085Z,0
2022-09-15T22:10:03.670Z,0
2022-09-15T22:15:01.127Z,0
2022-09-15T22:20:01.177Z,0
2022-09-15T22:25:01.120Z,0
2022-09-15T22:30:01.242Z,0
2022-09-15T22:35:01.430Z,0
2022-09-15T22:40:08.574Z,0
2022-09-15T22:45:01.157Z,0
2022-09-15T22:50:01.323Z,0
2022-09-15T22:55:01.149Z,0
2022-09-15T23:00:01.180Z,0
2022-09-15T23:05:01.185Z,0
2022-09-15T23:10:08.197Z,0
2022-09-15T23:15:01.159Z,0
2022-09-15T23:20:01.168Z,0
2022-09-15T23:25:01.154Z,0
2022-09-15T23:30:01.334Z,0
2022-09-15T23:35:01.212Z,0
2022-09-15T23:40:04.585Z,0
2022-09-15T23:45:01.180Z,0
2022-09-15T23:50:01.370Z,0
2022-09-15T23:55:01.223Z,0
